createdAt,value
2023-05-05T10:26:05.376Z,25.00
2023-05-05T10:27:04.952Z,25.00
2023-05-05T10:28:04.965Z,25.00
2023-05-05T10:29:05.027Z,25.00
2023-05-05T10:30:04.979Z,25.00
2023-05-05T10:31:10.001Z,0.00
2023-05-05T10:32:21.495Z,0.00
2023-05-05T10:33:18.497Z,0.00
2023-05-05T10:34:06.188Z,0.00
2023-05-05T10:35:04.899Z,0.00
2023-05-05T10:36:04.986Z,0.00
2023-05-05T10:37:05.015Z,0.00
2023-05-05T10:38:04.945Z,0.00
2023-05-05T10:39:04.948Z,0.00
2023-05-05T10:40:04.872Z,0.00
2023-05-05T10:41:04.878Z,0.00
2023-05-05T10:42:04.922Z,0.00
2023-05-05T10:43:04.918Z,0.00
2023-05-05T10:44:04.893Z,0.00
2023-05-05T10:45:04.916Z,0.00
2023-05-05T10:46:04.860Z,0.00
2023-05-05T10:47:04.844Z,0.00
2023-05-05T10:48:04.902Z,0.00
2023-05-05T10:49:04.825Z,0.00
2023-05-05T10:50:04.851Z,0.00
2023-05-05T10:51:04.807Z,0.00
2023-05-05T10:52:04.822Z,0.00
2023-05-05T10:53:04.791Z,0.00
2023-05-05T10:54:04.825Z,0.00
2023-05-05T10:55:04.792Z,0.00
2023-05-05T10:56:04.769Z,0.00
2023-05-05T10:57:04.858Z,0.00
2023-05-05T10:58:04.788Z,0.00
2023-05-05T10:59:04.774Z,0.00
2023-05-05T11:00:04.759Z,0.00
2023-05-05T11:01:04.741Z,0.00
2023-05-05T11:02:04.772Z,0.00
2023-05-05T11:03:04.786Z,0.00
2023-05-05T11:04:04.751Z,0.00
2023-05-05T11:05:04.766Z,0.00
2023-05-05T11:06:04.699Z,0.00
2023-05-05T11:07:04.688Z,0.00
2023-05-05T11:08:04.713Z,0.00
2023-05-05T11:09:04.684Z,0.00
2023-05-05T11:10:04.659Z,0.00
2023-05-05T11:11:04.656Z,0.00
2023-05-05T11:12:04.648Z,0.00
2023-05-05T11:13:04.702Z,0.00
2023-05-05T11:14:04.774Z,0.00
2023-05-05T11:15:04.698Z,0.00
2023-05-05T11:16:04.714Z,16.99
2023-05-05T11:17:04.650Z,41.54
2023-05-05T11:18:07.037Z,27.34
2023-05-05T11:19:04.642Z,25.84
2023-05-05T11:20:04.642Z,36.84
2023-05-05T11:21:04.653Z,40.95
2023-05-05T11:22:04.640Z,47.41
2023-05-05T11:23:05.029Z,13.62
2023-05-05T11:24:04.632Z,33.40
2023-05-05T11:25:04.602Z,54.77
2023-05-05T11:26:04.623Z,71.15
2023-05-05T11:27:04.584Z,77.08
2023-05-05T11:28:04.591Z,92.18
2023-05-05T11:29:04.608Z,102.19
2023-05-05T11:30:04.702Z,103.44
2023-05-05T11:31:04.650Z,101.87
2023-05-05T11:32:04.570Z,104.22
2023-05-05T11:33:04.614Z,104.05
2023-05-05T11:34:04.570Z,105.87
2023-05-05T11:35:04.539Z,92.10
2023-05-05T11:36:06.377Z,99.51
2023-05-05T11:37:04.545Z,102.48
2023-05-05T11:38:04.532Z,98.87
2023-05-05T11:39:04.604Z,100.83
2023-05-05T11:40:04.679Z,102.30
2023-05-05T11:41:04.729Z,110.58
2023-05-05T11:42:09.414Z,114.65
2023-05-05T11:43:05.756Z,114.88
2023-05-05T11:44:04.784Z,115.59
2023-05-05T11:45:04.767Z,117.03
2023-05-05T11:46:04.830Z,120.52
2023-05-05T11:47:04.724Z,121.43
2023-05-05T11:48:04.716Z,123.24
2023-05-05T11:49:04.725Z,126.58
2023-05-05T11:50:04.717Z,128.38
2023-05-05T11:51:07.314Z,128.40
2023-05-05T11:52:04.952Z,128.32
2023-05-05T11:53:04.976Z,127.92
2023-05-05T11:54:05.080Z,127.40
2023-05-05T11:55:05.118Z,130.52
2023-05-05T11:56:05.200Z,132.21
2023-05-05T11:57:05.252Z,132.78
2023-05-05T11:58:05.295Z,135.24
2023-05-05T11:59:05.318Z,132.13
2023-05-05T12:00:05.417Z,130.95
2023-05-05T12:01:05.457Z,130.09
2023-05-05T12:02:05.573Z,132.31
2023-05-05T12:03:05.775Z,133.52
2023-05-05T12:04:05.727Z,133.07
2023-05-05T12:05:05.683Z,132.63
2023-05-05T12:06:05.720Z,133.85
2023-05-05T12:07:05.789Z,132.28
2023-05-05T12:08:05.814Z,132.75
2023-05-05T12:09:05.905Z,130.89
2023-05-05T12:10:06.021Z,130.36
2023-05-05T12:11:06.007Z,125.84
2023-05-05T12:12:06.031Z,119.83
2023-05-05T12:13:06.137Z,115.56
2023-05-05T12:14:06.129Z,110.28
2023-05-05T12:15:06.202Z,98.65
2023-05-05T12:16:06.238Z,89.69
2023-05-05T12:17:06.314Z,80.89
2023-05-05T12:18:06.447Z,70.77
2023-05-05T12:19:06.411Z,69.77
2023-05-05T12:20:06.855Z,59.72
2023-05-05T12:21:06.529Z,44.84
2023-05-05T12:22:06.577Z,37.36
2023-05-05T12:23:06.695Z,25.38
2023-05-05T12:24:06.760Z,24.98
2023-05-05T12:25:06.778Z,28.27
2023-05-05T12:26:06.854Z,26.86
2023-05-05T12:27:06.899Z,23.98
2023-05-05T12:28:06.983Z,25.00
2023-05-05T12:29:07.031Z,25.00
2023-05-05T12:30:07.338Z,25.77
2023-05-05T12:31:07.247Z,25.00
2023-05-05T12:32:07.246Z,24.27
2023-05-05T12:33:07.283Z,25.27
2023-05-05T12:34:07.344Z,31.30
2023-05-05T12:35:07.341Z,26.45
2023-05-05T12:36:07.380Z,26.09
2023-05-05T12:37:07.435Z,28.07
2023-05-05T12:38:07.541Z,36.36
2023-05-05T12:39:07.577Z,29.43
2023-05-05T12:40:07.802Z,34.15
2023-05-05T12:41:07.662Z,24.90
2023-05-05T12:43:07.730Z,26.23
2023-05-05T12:44:07.680Z,26.79
2023-05-05T12:45:07.707Z,27.45
2023-05-05T12:46:07.786Z,26.80
2023-05-05T12:47:07.704Z,36.73
2023-05-05T12:48:07.685Z,88.34
2023-05-05T12:49:07.691Z,95.62
2023-05-05T12:50:07.991Z,85.64
2023-05-05T12:51:07.659Z,57.25
2023-05-05T12:52:07.644Z,52.91
2023-05-05T12:53:07.638Z,80.57
2023-05-05T12:54:07.650Z,69.45
2023-05-05T12:55:07.852Z,51.22
2023-05-05T12:56:07.611Z,46.02
2023-05-05T12:57:07.646Z,53.50
2023-05-05T12:58:07.632Z,49.39
2023-05-05T12:59:07.758Z,53.76
2023-05-05T13:00:07.823Z,40.34
2023-05-05T13:01:07.677Z,36.01
2023-05-05T13:02:07.616Z,41.33
2023-05-05T13:03:07.829Z,38.61
2023-05-05T13:04:07.554Z,38.64
2023-05-05T13:05:07.728Z,40.71
2023-05-05T13:06:07.604Z,31.87
2023-05-05T13:07:07.561Z,31.89
2023-05-05T13:08:07.530Z,30.13
2023-05-05T13:09:07.593Z,37.17
2023-05-05T13:10:07.681Z,41.90
2023-05-05T13:11:07.504Z,26.14
2023-05-05T13:12:07.536Z,26.49
2023-05-05T13:13:07.485Z,30.08
2023-05-05T13:14:07.460Z,27.59
2023-05-05T13:15:07.896Z,30.28
2023-05-05T13:16:07.503Z,25.00
2023-05-05T13:17:07.491Z,32.49
2023-05-05T13:18:07.477Z,32.15
2023-05-05T13:19:07.427Z,29.73
2023-05-05T13:20:07.567Z,25.85
2023-05-05T13:21:07.526Z,32.24
2023-05-05T13:22:07.648Z,31.18
2023-05-05T13:23:07.565Z,34.52
2023-05-05T13:24:18.903Z,23.57
2023-05-05T13:25:08.776Z,24.06
2023-05-05T13:26:07.572Z,25.45
2023-05-05T13:27:07.556Z,29.39
2023-05-05T13:28:07.552Z,29.77
2023-05-05T13:29:07.592Z,32.31
2023-05-05T13:30:07.560Z,31.35
2023-05-05T13:31:07.596Z,31.11
2023-05-05T13:32:07.530Z,40.10
2023-05-05T13:33:07.590Z,28.55
2023-05-05T13:34:07.508Z,25.00
2023-05-05T13:35:07.720Z,37.55
2023-05-05T13:36:07.529Z,34.42
2023-05-05T13:37:07.526Z,48.30
2023-05-05T13:38:07.604Z,36.32
2023-05-05T13:39:07.503Z,38.35
2023-05-05T13:40:07.576Z,38.66
2023-05-05T13:41:07.566Z,29.06
2023-05-05T13:42:07.615Z,45.66
2023-05-05T13:43:07.626Z,42.83
2023-05-05T13:44:07.652Z,41.07
2023-05-05T13:45:07.906Z,29.37
2023-05-05T13:46:19.250Z,36.89
2023-05-05T13:47:08.704Z,36.91
2023-05-05T13:48:07.708Z,37.94
2023-05-05T13:49:07.677Z,40.48
2023-05-05T13:50:07.640Z,36.08
2023-05-05T13:51:07.616Z,38.70
2023-05-05T13:52:07.641Z,39.23
2023-05-05T13:53:07.670Z,45.02
2023-05-05T13:54:07.684Z,36.60
2023-05-05T13:55:07.787Z,30.46
2023-05-05T13:56:07.627Z,27.14
2023-05-05T13:57:07.583Z,39.71
2023-05-05T13:58:07.598Z,41.36
2023-05-05T13:59:07.666Z,36.29
2023-05-05T14:00:07.583Z,41.52
2023-05-05T14:01:07.705Z,30.46
2023-05-05T14:02:07.572Z,33.29
2023-05-05T14:03:07.550Z,39.22
2023-05-05T14:04:07.713Z,25.00
2023-05-05T14:05:07.787Z,30.66
2023-05-05T14:06:07.549Z,26.49
2023-05-05T14:07:07.605Z,31.80
2023-05-05T14:08:07.564Z,47.65
2023-05-05T14:09:07.598Z,48.82
2023-05-05T14:10:07.764Z,66.29
2023-05-05T14:11:07.631Z,77.81
2023-05-05T14:12:07.636Z,71.61
2023-05-05T14:13:07.732Z,67.06
2023-05-05T14:14:07.668Z,75.80
2023-05-05T14:15:07.925Z,63.91
2023-05-05T14:16:07.750Z,84.92
2023-05-05T14:17:07.658Z,82.79
2023-05-05T14:18:07.778Z,95.32
2023-05-05T14:19:07.695Z,110.59
2023-05-05T14:20:07.743Z,128.31
2023-05-05T14:21:07.755Z,127.57
2023-05-05T14:22:07.736Z,141.77
2023-05-05T14:23:07.807Z,140.86
2023-05-05T14:24:07.794Z,137.06
2023-05-05T14:25:07.911Z,151.75
2023-05-05T14:26:07.853Z,163.47
2023-05-05T14:27:07.793Z,166.52
2023-05-05T14:28:07.848Z,172.75
2023-05-05T14:29:07.813Z,182.35
2023-05-05T14:30:07.912Z,185.85
2023-05-05T14:31:07.832Z,184.55
2023-05-05T14:32:07.879Z,194.42
2023-05-05T14:33:07.917Z,194.42
2023-05-05T14:34:07.862Z,208.23
2023-05-05T14:35:08.045Z,207.22
2023-05-05T14:36:07.883Z,209.18
2023-05-05T14:37:07.890Z,217.58
2023-05-05T14:38:07.915Z,218.04
2023-05-05T14:39:07.877Z,215.42
2023-05-05T14:40:07.924Z,215.26
2023-05-05T14:41:07.877Z,218.61
2023-05-05T14:42:07.952Z,223.91
2023-05-05T14:43:07.973Z,229.65
2023-05-05T14:44:07.918Z,230.78
2023-05-05T14:45:08.144Z,234.59
2023-05-05T14:46:07.949Z,234.13
2023-05-05T14:47:07.920Z,233.62
2023-05-05T14:48:07.940Z,233.03
2023-05-05T14:49:07.969Z,238.54
2023-05-05T14:50:07.968Z,238.45
2023-05-05T14:51:07.991Z,236.26
2023-05-05T14:52:07.947Z,244.08
2023-05-05T14:53:07.968Z,247.40
2023-05-05T14:54:20.470Z,244.64
2023-05-05T14:55:09.257Z,244.97
2023-05-05T14:56:07.979Z,245.69
2023-05-05T14:57:07.997Z,246.81
2023-05-05T14:58:08.013Z,249.74
2023-05-05T14:59:07.977Z,252.94
2023-05-05T15:00:07.943Z,250.19
2023-05-05T15:01:08.010Z,249.19
2023-05-05T15:02:07.936Z,247.14
2023-05-05T15:03:08.021Z,246.60
2023-05-05T15:04:07.920Z,249.75
2023-05-05T15:05:08.226Z,248.70
2023-05-05T15:06:07.924Z,243.16
2023-05-05T15:07:07.916Z,245.93
2023-05-05T15:08:07.918Z,248.75
2023-05-05T15:09:07.895Z,248.20
2023-05-05T15:10:07.896Z,249.41
2023-05-05T15:11:07.921Z,248.00
2023-05-05T15:12:07.863Z,250.00
2023-05-05T15:13:07.972Z,246.90
2023-05-05T15:14:07.849Z,248.65
2023-05-05T15:15:08.070Z,248.74
2023-05-05T15:16:07.970Z,248.84
2023-05-05T15:17:07.894Z,250.55
2023-05-05T15:18:07.916Z,247.69
2023-05-05T15:19:07.909Z,246.98
2023-05-05T15:20:07.950Z,246.84
2023-05-05T15:21:08.035Z,246.57
2023-05-05T15:22:08.013Z,245.25
2023-05-05T15:23:08.064Z,246.36
2023-05-05T15:24:08.043Z,247.31
2023-05-05T15:25:08.277Z,246.32
2023-05-05T15:26:08.083Z,248.54
2023-05-05T15:27:08.163Z,246.51
2023-05-05T15:28:08.160Z,247.29
2023-05-05T15:29:08.186Z,250.00
2023-05-05T15:30:08.264Z,246.39
2023-05-05T15:31:08.231Z,245.12
2023-05-05T15:32:08.313Z,244.88
2023-05-05T15:33:08.255Z,246.34
2023-05-05T15:34:08.309Z,245.19
2023-05-05T15:35:08.512Z,245.54
2023-05-05T15:36:08.358Z,246.43
2023-05-05T15:37:08.440Z,246.67
2023-05-05T15:38:08.452Z,247.09
2023-05-05T15:39:08.459Z,247.83
2023-05-05T15:40:08.519Z,246.67
2023-05-05T15:41:08.559Z,248.26
2023-05-05T15:42:08.578Z,245.64
2023-05-05T15:43:08.707Z,245.75
2023-05-05T15:44:08.622Z,247.09
2023-05-05T15:45:08.923Z,249.49
2023-05-05T15:46:08.762Z,245.04
2023-05-05T15:47:08.804Z,246.93
2023-05-05T15:48:08.810Z,244.73
2023-05-05T15:49:08.814Z,245.45
2023-05-05T15:50:08.859Z,246.23
2023-05-05T15:51:08.907Z,244.94
2023-05-05T15:52:08.925Z,243.85
2023-05-05T15:53:08.951Z,245.63
2023-05-05T15:54:09.004Z,244.39
2023-05-05T15:55:09.169Z,242.53
2023-05-05T15:56:09.062Z,244.17
2023-05-05T15:57:09.082Z,245.28
2023-05-05T15:58:09.158Z,248.16
2023-05-05T15:59:09.164Z,243.71
2023-05-05T16:00:09.226Z,245.35
2023-05-05T16:01:09.314Z,245.36
2023-05-05T16:02:09.404Z,245.88
2023-05-05T16:03:09.551Z,243.75
2023-05-05T16:04:09.421Z,243.30
2023-05-05T16:05:09.736Z,245.64
2023-05-05T16:06:09.498Z,243.32
2023-05-05T16:07:09.548Z,244.54
2023-05-05T16:08:09.602Z,245.86
2023-05-05T16:09:09.661Z,243.59
2023-05-05T16:10:09.654Z,245.48
2023-05-05T16:11:09.699Z,243.44
2023-05-05T16:12:09.795Z,242.92
2023-05-05T16:13:09.857Z,246.12
2023-05-05T16:14:09.850Z,245.81
2023-05-05T16:15:10.223Z,241.70
2023-05-05T16:16:09.988Z,242.43
2023-05-05T16:17:09.937Z,245.00
2023-05-05T16:18:10.073Z,239.90
2023-05-05T16:19:10.083Z,243.23
2023-05-05T16:20:10.087Z,241.35
2023-05-05T16:21:10.128Z,244.34
2023-05-05T16:22:10.192Z,241.66
2023-05-05T16:23:10.200Z,242.19
2023-05-05T16:24:10.267Z,241.05
2023-05-05T16:25:10.516Z,241.76
2023-05-05T16:26:10.366Z,239.89
2023-05-05T16:27:10.371Z,240.65
2023-05-05T16:28:10.403Z,243.04
2023-05-05T16:29:10.527Z,241.26
2023-05-05T16:30:10.499Z,240.53
2023-05-05T16:31:10.741Z,240.57
2023-05-05T16:32:10.615Z,241.68
2023-05-05T16:33:10.769Z,240.43
2023-05-05T16:34:10.769Z,242.55
2023-05-05T16:35:10.828Z,241.89
2023-05-05T16:36:10.803Z,241.51
2023-05-05T16:37:10.859Z,240.88
2023-05-05T16:38:10.876Z,240.62
2023-05-05T16:39:10.929Z,239.32
2023-05-05T16:40:10.991Z,237.76
2023-05-05T16:41:11.028Z,239.22
2023-05-05T16:42:11.089Z,240.53
2023-05-05T16:43:11.176Z,240.00
2023-05-05T16:44:11.169Z,237.14
2023-05-05T16:45:11.470Z,238.83
2023-05-05T16:46:11.347Z,239.71
2023-05-05T16:47:11.336Z,239.24
2023-05-05T16:48:11.413Z,240.20
2023-05-05T16:49:11.457Z,240.04
2023-05-05T16:50:11.545Z,239.86
2023-05-05T16:51:11.530Z,239.82
2023-05-05T16:52:11.578Z,237.87
2023-05-05T16:53:11.623Z,239.75
2023-05-05T16:54:11.688Z,237.88
2023-05-05T16:55:11.881Z,241.09
2023-05-05T16:56:11.798Z,237.74
2023-05-05T16:57:11.836Z,240.45
2023-05-05T16:58:11.848Z,236.48
2023-05-05T16:59:11.913Z,239.38
2023-05-05T17:00:11.991Z,237.26
